KLRF/LRF METAR and TAF weather

Enter ICAO airport designator
Station Type Date Time Source
KLRF METAR 2021/07/24 20:56 UTC NOAA

KLRF 242056Z AUTO 20007KT 10SM FEW045 35/23 A2998 RMK AO2 SLP151 T03450232 57016 $


Station Type Date Time Source
KLRF Decoded METAR 2021/07/24 20:56 UTC NOAA

Little Rock Air Force Base, AR, United States (KLRF) 34-55N 092-09W
Jul 24, 2021 - 04:56 PM EDT / 2021.07.24 2056 UTC
Wind: from the SSW (200 degrees) at 8 MPH (7 KT):0
Visibility: 10 mile(s):0
Sky conditions: mostly clear
Temperature: 94.1 F (34.5 C)
Heat index: 103.8 F (39.9 C):1
Dew Point: 73.8 F (23.2 C)
Relative Humidity: 51%
Pressure (altimeter): 29.98 in. Hg (1015 hPa)
Pressure tendency: 0.05 inches (1.6 hPa) lower than three hours ago
ob: KLRF 242056Z AUTO 20007KT 10SM FEW045 35/23 A2998 RMK AO2 SLP151 T03450232 57016
cycle: 21

Station Type Date Time Source
KLRF TAF 2021/07/24 15:06 UTC NOAA

TAF TAF KLRF 241503Z 2415/2521 VRB06KT 9999 FEW090 QNH3005INS
BECMG 2416/2417 26009KT 9999 VCTS SCT080CB BKN200 QNH3004INS
TEMPO 2418/2422 28010G15KT 9000 -TSRA BKN050CB
BECMG 2422/2423 25012KT 9999 NSW SCT050 BKN120 QNH2994INS
BECMG 2503/2504 VRB06KT 9999 FEW100 QNH2993INS
BECMG 2516/2517 22009KT 9999 VCTS BKN060CB QNH2994INS TX36/2421Z TN27/2511Z

Example: see airport list